sensor_id;sensor_type;location;lat;lon;timestamp;P1;durP1;ratioP1;P2;durP2;ratioP2
56824;SDS011;42705;50.326;18.772;2023-04-03T00:01:56;8.40;;;6.00;;
56824;SDS011;42705;50.326;18.772;2023-04-03T00:07:18;9.80;;;6.50;;
56824;SDS011;42705;50.326;18.772;2023-04-03T00:12:40;9.40;;;6.60;;
56824;SDS011;42705;50.326;18.772;2023-04-03T00:18:02;8.40;;;6.20;;
56824;SDS011;42705;50.326;18.772;2023-04-03T00:23:25;8.70;;;6.90;;
56824;SDS011;42705;50.326;18.772;2023-04-03T00:28:47;10.40;;;7.00;;
56824;SDS011;42705;50.326;18.772;2023-04-03T00:34:08;8.40;;;5.70;;
56824;SDS011;42705;50.326;18.772;2023-04-03T00:39:31;8.70;;;6.20;;
56824;SDS011;42705;50.326;18.772;2023-04-03T00:50:18;9.20;;;7.40;;
56824;SDS011;42705;50.326;18.772;2023-04-03T00:55:40;10.90;;;7.20;;
56824;SDS011;42705;50.326;18.772;2023-04-03T01:01:05;10.60;;;7.00;;
56824;SDS011;42705;50.326;18.772;2023-04-03T01:06:34;9.90;;;7.20;;
56824;SDS011;42705;50.326;18.772;2023-04-03T01:12:21;8.80;;;6.10;;
56824;SDS011;42705;50.326;18.772;2023-04-03T01:17:47;9.30;;;5.70;;
56824;SDS011;42705;50.326;18.772;2023-04-03T01:23:22;6.90;;;5.50;;
56824;SDS011;42705;50.326;18.772;2023-04-03T01:28:48;9.40;;;6.20;;
56824;SDS011;42705;50.326;18.772;2023-04-03T01:34:10;7.10;;;5.30;;
56824;SDS011;42705;50.326;18.772;2023-04-03T01:39:32;10.20;;;5.40;;
56824;SDS011;42705;50.326;18.772;2023-04-03T01:44:55;11.30;;;5.30;;
56824;SDS011;42705;50.326;18.772;2023-04-03T01:50:18;9.00;;;4.70;;
56824;SDS011;42705;50.326;18.772;2023-04-03T01:55:40;10.50;;;4.80;;
56824;SDS011;42705;50.326;18.772;2023-04-03T02:01:02;9.90;;;4.30;;
56824;SDS011;42705;50.326;18.772;2023-04-03T02:06:24;9.80;;;5.40;;
56824;SDS011;42705;50.326;18.772;2023-04-03T02:13:24;9.00;;;4.10;;
56824;SDS011;42705;50.326;18.772;2023-04-03T02:18:46;8.40;;;4.50;;
56824;SDS011;42705;50.326;18.772;2023-04-03T02:24:08;8.10;;;4.40;;
56824;SDS011;42705;50.326;18.772;2023-04-03T02:29:30;8.60;;;4.70;;
56824;SDS011;42705;50.326;18.772;2023-04-03T02:34:51;8.80;;;5.30;;
56824;SDS011;42705;50.326;18.772;2023-04-03T02:40:14;7.60;;;4.40;;
56824;SDS011;42705;50.326;18.772;2023-04-03T02:45:36;5.40;;;3.40;;
56824;SDS011;42705;50.326;18.772;2023-04-03T02:50:59;5.50;;;3.30;;
56824;SDS011;42705;50.326;18.772;2023-04-03T02:56:21;5.90;;;3.40;;
56824;SDS011;42705;50.326;18.772;2023-04-03T03:01:43;8.40;;;4.30;;
56824;SDS011;42705;50.326;18.772;2023-04-03T03:07:05;9.20;;;3.60;;
56824;SDS011;42705;50.326;18.772;2023-04-03T03:12:27;8.20;;;3.90;;
56824;SDS011;42705;50.326;18.772;2023-04-03T03:23:12;6.30;;;3.00;;
56824;SDS011;42705;50.326;18.772;2023-04-03T03:28:35;9.50;;;4.20;;
56824;SDS011;42705;50.326;18.772;2023-04-03T03:33:58;10.60;;;3.70;;
56824;SDS011;42705;50.326;18.772;2023-04-03T03:39:21;5.60;;;3.40;;
56824;SDS011;42705;50.326;18.772;2023-04-03T03:44:42;8.10;;;3.40;;
56824;SDS011;42705;50.326;18.772;2023-04-03T03:50:05;5.20;;;3.20;;
56824;SDS011;42705;50.326;18.772;2023-04-03T03:55:28;7.80;;;3.80;;
56824;SDS011;42705;50.326;18.772;2023-04-03T04:00:50;8.50;;;3.00;;
56824;SDS011;42705;50.326;18.772;2023-04-03T04:06:12;9.10;;;2.70;;
56824;SDS011;42705;50.326;18.772;2023-04-03T04:11:35;5.80;;;3.00;;
56824;SDS011;42705;50.326;18.772;2023-04-03T04:16:57;6.90;;;2.80;;
56824;SDS011;42705;50.326;18.772;2023-04-03T04:22:21;9.00;;;3.00;;
56824;SDS011;42705;50.326;18.772;2023-04-03T04:27:43;5.90;;;2.90;;
56824;SDS011;42705;50.326;18.772;2023-04-03T04:33:08;5.90;;;3.10;;
56824;SDS011;42705;50.326;18.772;2023-04-03T04:38:32;7.10;;;2.90;;
56824;SDS011;42705;50.326;18.772;2023-04-03T04:43:53;6.80;;;3.10;;
56824;SDS011;42705;50.326;18.772;2023-04-03T04:49:17;7.30;;;3.10;;
56824;SDS011;42705;50.326;18.772;2023-04-03T04:54:39;5.70;;;3.10;;
56824;SDS011;42705;50.326;18.772;2023-04-03T05:00:02;6.60;;;2.80;;
56824;SDS011;42705;50.326;18.772;2023-04-03T05:05:25;8.30;;;2.90;;
56824;SDS011;42705;50.326;18.772;2023-04-03T05:10:47;9.30;;;2.70;;
56824;SDS011;42705;50.326;18.772;2023-04-03T05:16:10;5.20;;;3.00;;
56824;SDS011;42705;50.326;18.772;2023-04-03T05:26:58;7.00;;;3.10;;
56824;SDS011;42705;50.326;18.772;2023-04-03T05:32:21;7.90;;;3.00;;
56824;SDS011;42705;50.326;18.772;2023-04-03T05:37:48;5.60;;;2.90;;
56824;SDS011;42705;50.326;18.772;2023-04-03T05:43:10;4.30;;;3.00;;
56824;SDS011;42705;50.326;18.772;2023-04-03T05:48:34;7.90;;;3.20;;
56824;SDS011;42705;50.326;18.772;2023-04-03T05:54:03;8.90;;;3.60;;
56824;SDS011;42705;50.326;18.772;2023-04-03T05:59:32;8.60;;;3.80;;
56824;SDS011;42705;50.326;18.772;2023-04-03T06:04:54;6.60;;;2.60;;
56824;SDS011;42705;50.326;18.772;2023-04-03T06:10:16;9.50;;;3.60;;
56824;SDS011;42705;50.326;18.772;2023-04-03T06:15:40;12.10;;;4.10;;
56824;SDS011;42705;50.326;18.772;2023-04-03T06:21:04;8.70;;;3.90;;
56824;SDS011;42705;50.326;18.772;2023-04-03T06:26:26;9.60;;;3.80;;
56824;SDS011;42705;50.326;18.772;2023-04-03T06:31:49;8.00;;;3.40;;
56824;SDS011;42705;50.326;18.772;2023-04-03T06:37:15;9.80;;;3.60;;
56824;SDS011;42705;50.326;18.772;2023-04-03T06:42:38;9.10;;;3.50;;
56824;SDS011;42705;50.326;18.772;2023-04-03T06:48:04;10.60;;;3.60;;
56824;SDS011;42705;50.326;18.772;2023-04-03T06:53:26;6.90;;;3.80;;
56824;SDS011;42705;50.326;18.772;2023-04-03T06:58:49;8.10;;;3.60;;
56824;SDS011;42705;50.326;18.772;2023-04-03T07:09:34;8.70;;;3.30;;
56824;SDS011;42705;50.326;18.772;2023-04-03T07:14:56;9.20;;;3.40;;
56824;SDS011;42705;50.326;18.772;2023-04-03T07:20:17;11.80;;;4.30;;
56824;SDS011;42705;50.326;18.772;2023-04-03T07:25:43;6.70;;;3.60;;
56824;SDS011;42705;50.326;18.772;2023-04-03T07:31:08;6.00;;;3.00;;
56824;SDS011;42705;50.326;18.772;2023-04-03T07:36:34;5.70;;;3.10;;
56824;SDS011;42705;50.326;18.772;2023-04-03T07:41:57;8.20;;;3.20;;
56824;SDS011;42705;50.326;18.772;2023-04-03T07:47:20;6.30;;;2.50;;
56824;SDS011;42705;50.326;18.772;2023-04-03T07:52:42;8.10;;;3.00;;
56824;SDS011;42705;50.326;18.772;2023-04-03T07:58:05;6.90;;;3.50;;
56824;SDS011;42705;50.326;18.772;2023-04-03T08:03:27;10.70;;;3.50;;
56824;SDS011;42705;50.326;18.772;2023-04-03T08:08:49;5.70;;;3.00;;
56824;SDS011;42705;50.326;18.772;2023-04-03T08:14:11;7.60;;;3.20;;
56824;SDS011;42705;50.326;18.772;2023-04-03T08:19:38;5.40;;;2.70;;
56824;SDS011;42705;50.326;18.772;2023-04-03T08:25:01;6.00;;;2.80;;
56824;SDS011;42705;50.326;18.772;2023-04-03T08:30:23;6.00;;;2.40;;
56824;SDS011;42705;50.326;18.772;2023-04-03T08:35:45;4.10;;;2.20;;
56824;SDS011;42705;50.326;18.772;2023-04-03T08:46:40;4.40;;;1.00;;
56824;SDS011;42705;50.326;18.772;2023-04-03T08:52:05;3.80;;;1.50;;
56824;SDS011;42705;50.326;18.772;2023-04-03T08:57:36;3.50;;;1.50;;
56824;SDS011;42705;50.326;18.772;2023-04-03T09:03:01;4.30;;;1.70;;
56824;SDS011;42705;50.326;18.772;2023-04-03T09:14:04;3.30;;;1.60;;
56824;SDS011;42705;50.326;18.772;2023-04-03T09:19:43;2.80;;;1.80;;
56824;SDS011;42705;50.326;18.772;2023-04-03T09:25:33;3.10;;;1.50;;
56824;SDS011;42705;50.326;18.772;2023-04-03T09:30:59;4.80;;;1.80;;
56824;SDS011;42705;50.326;18.772;2023-04-03T09:42:16;3.00;;;1.20;;
56824;SDS011;42705;50.326;18.772;2023-04-03T09:47:41;3.00;;;1.30;;
56824;SDS011;42705;50.326;18.772;2023-04-03T09:53:06;6.50;;;1.90;;
56824;SDS011;42705;50.326;18.772;2023-04-03T09:58:48;4.20;;;2.00;;
56824;SDS011;42705;50.326;18.772;2023-04-03T10:04:38;4.40;;;2.10;;
56824;SDS011;42705;50.326;18.772;2023-04-03T10:10:14;5.00;;;1.40;;
56824;SDS011;42705;50.326;18.772;2023-04-03T10:15:45;3.30;;;1.60;;
56824;SDS011;42705;50.326;18.772;2023-04-03T10:21:15;4.50;;;1.90;;
56824;SDS011;42705;50.326;18.772;2023-04-03T10:38:20;3.40;;;1.70;;
56824;SDS011;42705;50.326;18.772;2023-04-03T10:55:20;4.80;;;2.00;;
56824;SDS011;42705;50.326;18.772;2023-04-03T11:00:48;6.10;;;2.80;;
56824;SDS011;42705;50.326;18.772;2023-04-03T11:06:13;4.90;;;1.90;;
56824;SDS011;42705;50.326;18.772;2023-04-03T11:11:39;4.90;;;1.90;;
56824;SDS011;42705;50.326;18.772;2023-04-03T11:22:48;4.80;;;2.40;;
56824;SDS011;42705;50.326;18.772;2023-04-03T11:28:16;3.70;;;2.00;;
56824;SDS011;42705;50.326;18.772;2023-04-03T11:39:16;5.20;;;3.00;;
56824;SDS011;42705;50.326;18.772;2023-04-03T11:44:45;3.00;;;1.90;;
56824;SDS011;42705;50.326;18.772;2023-04-03T11:50:07;4.50;;;2.50;;
56824;SDS011;42705;50.326;18.772;2023-04-03T11:55:57;3.40;;;1.70;;
56824;SDS011;42705;50.326;18.772;2023-04-03T12:01:45;3.10;;;2.00;;
56824;SDS011;42705;50.326;18.772;2023-04-03T12:07:12;8.00;;;2.60;;
56824;SDS011;42705;50.326;18.772;2023-04-03T12:12:39;4.10;;;2.00;;
56824;SDS011;42705;50.326;18.772;2023-04-03T12:24:23;4.30;;;1.50;;
56824;SDS011;42705;50.326;18.772;2023-04-03T12:29:55;6.20;;;2.30;;
56824;SDS011;42705;50.326;18.772;2023-04-03T12:35:34;3.70;;;2.20;;
56824;SDS011;42705;50.326;18.772;2023-04-03T12:47:34;4.00;;;2.30;;
56824;SDS011;42705;50.326;18.772;2023-04-03T12:53:00;6.50;;;2.30;;
56824;SDS011;42705;50.326;18.772;2023-04-03T12:58:27;5.30;;;2.50;;
56824;SDS011;42705;50.326;18.772;2023-04-03T13:03:52;5.70;;;2.60;;
56824;SDS011;42705;50.326;18.772;2023-04-03T13:09:21;5.20;;;2.30;;
56824;SDS011;42705;50.326;18.772;2023-04-03T13:14:51;2.80;;;2.00;;
56824;SDS011;42705;50.326;18.772;2023-04-03T13:25:42;5.50;;;2.40;;
56824;SDS011;42705;50.326;18.772;2023-04-03T13:31:08;4.40;;;2.40;;
56824;SDS011;42705;50.326;18.772;2023-04-03T13:36:45;2.70;;;1.60;;
56824;SDS011;42705;50.326;18.772;2023-04-03T13:42:23;3.50;;;2.50;;
56824;SDS011;42705;50.326;18.772;2023-04-03T13:47:52;4.30;;;2.40;;
56824;SDS011;42705;50.326;18.772;2023-04-03T13:53:16;5.60;;;2.90;;
56824;SDS011;42705;50.326;18.772;2023-04-03T13:58:38;8.70;;;4.00;;
56824;SDS011;42705;50.326;18.772;2023-04-03T14:04:09;4.90;;;2.90;;
56824;SDS011;42705;50.326;18.772;2023-04-03T14:09:38;7.70;;;4.30;;
56824;SDS011;42705;50.326;18.772;2023-04-03T14:25:48;5.60;;;3.30;;
56824;SDS011;42705;50.326;18.772;2023-04-03T14:31:11;8.60;;;4.70;;
56824;SDS011;42705;50.326;18.772;2023-04-03T14:36:34;7.50;;;3.70;;
56824;SDS011;42705;50.326;18.772;2023-04-03T14:41:56;4.80;;;3.10;;
56824;SDS011;42705;50.326;18.772;2023-04-03T14:47:19;7.00;;;4.10;;
56824;SDS011;42705;50.326;18.772;2023-04-03T14:52:44;7.30;;;4.00;;
56824;SDS011;42705;50.326;18.772;2023-04-03T14:58:08;11.00;;;4.50;;
56824;SDS011;42705;50.326;18.772;2023-04-03T15:03:34;12.40;;;5.90;;
56824;SDS011;42705;50.326;18.772;2023-04-03T15:08:56;14.20;;;4.90;;
56824;SDS011;42705;50.326;18.772;2023-04-03T15:14:18;13.70;;;5.80;;
56824;SDS011;42705;50.326;18.772;2023-04-03T15:19:40;11.50;;;5.10;;
56824;SDS011;42705;50.326;18.772;2023-04-03T15:25:03;12.60;;;5.10;;
56824;SDS011;42705;50.326;18.772;2023-04-03T15:30:25;6.60;;;3.40;;
56824;SDS011;42705;50.326;18.772;2023-04-03T15:35:47;8.40;;;4.10;;
56824;SDS011;42705;50.326;18.772;2023-04-03T15:41:09;9.50;;;4.90;;
56824;SDS011;42705;50.326;18.772;2023-04-03T15:46:32;9.90;;;4.60;;
56824;SDS011;42705;50.326;18.772;2023-04-03T15:51:54;8.80;;;4.10;;
56824;SDS011;42705;50.326;18.772;2023-04-03T15:57:16;7.20;;;3.30;;
56824;SDS011;42705;50.326;18.772;2023-04-03T16:02:38;13.70;;;5.40;;
56824;SDS011;42705;50.326;18.772;2023-04-03T16:08:00;13.10;;;5.50;;
56824;SDS011;42705;50.326;18.772;2023-04-03T16:13:23;23.00;;;9.00;;
56824;SDS011;42705;50.326;18.772;2023-04-03T16:18:45;19.90;;;7.30;;
56824;SDS011;42705;50.326;18.772;2023-04-03T16:24:08;14.50;;;5.70;;
56824;SDS011;42705;50.326;18.772;2023-04-03T16:29:30;13.10;;;5.30;;
56824;SDS011;42705;50.326;18.772;2023-04-03T16:34:52;10.10;;;5.30;;
56824;SDS011;42705;50.326;18.772;2023-04-03T16:40:15;16.20;;;6.70;;
56824;SDS011;42705;50.326;18.772;2023-04-03T16:45:37;13.10;;;5.20;;
56824;SDS011;42705;50.326;18.772;2023-04-03T16:51:00;16.90;;;7.10;;
56824;SDS011;42705;50.326;18.772;2023-04-03T16:56:22;9.50;;;5.00;;
56824;SDS011;42705;50.326;18.772;2023-04-03T17:01:44;9.60;;;4.20;;
56824;SDS011;42705;50.326;18.772;2023-04-03T17:07:06;11.60;;;4.90;;
56824;SDS011;42705;50.326;18.772;2023-04-03T17:12:29;11.00;;;5.80;;
56824;SDS011;42705;50.326;18.772;2023-04-03T17:17:51;11.90;;;4.80;;
56824;SDS011;42705;50.326;18.772;2023-04-03T17:23:14;13.10;;;4.90;;
56824;SDS011;42705;50.326;18.772;2023-04-03T17:28:36;7.20;;;3.40;;
56824;SDS011;42705;50.326;18.772;2023-04-03T17:39:24;13.30;;;5.80;;
56824;SDS011;42705;50.326;18.772;2023-04-03T17:44:46;12.90;;;5.10;;
56824;SDS011;42705;50.326;18.772;2023-04-03T17:50:09;20.50;;;6.00;;
56824;SDS011;42705;50.326;18.772;2023-04-03T18:00:54;10.00;;;4.90;;
56824;SDS011;42705;50.326;18.772;2023-04-03T18:17:04;7.60;;;4.20;;
56824;SDS011;42705;50.326;18.772;2023-04-03T18:22:27;12.10;;;5.10;;
56824;SDS011;42705;50.326;18.772;2023-04-03T18:27:52;12.20;;;5.10;;
56824;SDS011;42705;50.326;18.772;2023-04-03T18:33:15;13.50;;;6.40;;
56824;SDS011;42705;50.326;18.772;2023-04-03T18:38:38;13.60;;;6.20;;
56824;SDS011;42705;50.326;18.772;2023-04-03T18:44:02;22.30;;;8.90;;
56824;SDS011;42705;50.326;18.772;2023-04-03T18:49:28;20.80;;;7.60;;
56824;SDS011;42705;50.326;18.772;2023-04-03T18:54:51;11.00;;;6.10;;
56824;SDS011;42705;50.326;18.772;2023-04-03T19:00:15;9.60;;;5.30;;
56824;SDS011;42705;50.326;18.772;2023-04-03T19:05:38;13.80;;;6.20;;
56824;SDS011;42705;50.326;18.772;2023-04-03T19:11:01;18.20;;;7.00;;
56824;SDS011;42705;50.326;18.772;2023-04-03T19:16:26;15.30;;;6.10;;
56824;SDS011;42705;50.326;18.772;2023-04-03T19:21:48;18.60;;;7.00;;
56824;SDS011;42705;50.326;18.772;2023-04-03T19:27:11;14.70;;;6.20;;
56824;SDS011;42705;50.326;18.772;2023-04-03T19:32:35;15.30;;;6.90;;
56824;SDS011;42705;50.326;18.772;2023-04-03T19:37:58;14.30;;;5.80;;
56824;SDS011;42705;50.326;18.772;2023-04-03T19:43:20;10.80;;;5.40;;
56824;SDS011;42705;50.326;18.772;2023-04-03T19:48:42;10.10;;;5.00;;
56824;SDS011;42705;50.326;18.772;2023-04-03T19:54:05;11.60;;;4.60;;
56824;SDS011;42705;50.326;18.772;2023-04-03T19:59:27;13.20;;;4.90;;
56824;SDS011;42705;50.326;18.772;2023-04-03T20:04:49;15.50;;;5.80;;
56824;SDS011;42705;50.326;18.772;2023-04-03T20:10:13;14.50;;;5.50;;
56824;SDS011;42705;50.326;18.772;2023-04-03T20:15:39;12.30;;;5.60;;
56824;SDS011;42705;50.326;18.772;2023-04-03T20:21:03;13.80;;;5.20;;
56824;SDS011;42705;50.326;18.772;2023-04-03T20:26:27;12.40;;;5.20;;
56824;SDS011;42705;50.326;18.772;2023-04-03T20:31:52;10.90;;;5.60;;
56824;SDS011;42705;50.326;18.772;2023-04-03T20:37:14;14.60;;;6.00;;
56824;SDS011;42705;50.326;18.772;2023-04-03T20:42:41;18.00;;;7.60;;
56824;SDS011;42705;50.326;18.772;2023-04-03T20:48:03;16.70;;;6.60;;
56824;SDS011;42705;50.326;18.772;2023-04-03T20:53:26;16.10;;;6.30;;
56824;SDS011;42705;50.326;18.772;2023-04-03T20:58:49;13.50;;;6.20;;
56824;SDS011;42705;50.326;18.772;2023-04-03T21:04:18;13.20;;;6.70;;
56824;SDS011;42705;50.326;18.772;2023-04-03T21:21:22;18.20;;;7.30;;
56824;SDS011;42705;50.326;18.772;2023-04-03T21:26:50;20.60;;;7.30;;
56824;SDS011;42705;50.326;18.772;2023-04-03T21:32:14;16.80;;;7.00;;
56824;SDS011;42705;50.326;18.772;2023-04-03T21:37:36;12.50;;;5.40;;
56824;SDS011;42705;50.326;18.772;2023-04-03T21:42:58;12.50;;;5.80;;
56824;SDS011;42705;50.326;18.772;2023-04-03T21:48:20;12.70;;;6.00;;
56824;SDS011;42705;50.326;18.772;2023-04-03T21:53:42;11.50;;;5.50;;
56824;SDS011;42705;50.326;18.772;2023-04-03T21:59:06;11.80;;;5.40;;
56824;SDS011;42705;50.326;18.772;2023-04-03T22:04:28;11.90;;;5.50;;
56824;SDS011;42705;50.326;18.772;2023-04-03T22:09:50;14.30;;;5.70;;
56824;SDS011;42705;50.326;18.772;2023-04-03T22:15:12;15.10;;;5.60;;
56824;SDS011;42705;50.326;18.772;2023-04-03T22:20:34;15.60;;;5.80;;
56824;SDS011;42705;50.326;18.772;2023-04-03T22:25:57;12.50;;;5.70;;
56824;SDS011;42705;50.326;18.772;2023-04-03T22:31:29;14.30;;;5.40;;
56824;SDS011;42705;50.326;18.772;2023-04-03T22:36:51;13.30;;;5.70;;
56824;SDS011;42705;50.326;18.772;2023-04-03T22:42:14;13.20;;;5.20;;
56824;SDS011;42705;50.326;18.772;2023-04-03T22:47:35;10.10;;;4.70;;
56824;SDS011;42705;50.326;18.772;2023-04-03T22:52:57;12.90;;;4.90;;
56824;SDS011;42705;50.326;18.772;2023-04-03T23:03:46;7.10;;;4.20;;
56824;SDS011;42705;50.326;18.772;2023-04-03T23:09:09;7.00;;;3.70;;
56824;SDS011;42705;50.326;18.772;2023-04-03T23:14:31;11.50;;;4.20;;
56824;SDS011;42705;50.326;18.772;2023-04-03T23:19:52;9.20;;;4.60;;
56824;SDS011;42705;50.326;18.772;2023-04-03T23:25:14;8.60;;;4.00;;
56824;SDS011;42705;50.326;18.772;2023-04-03T23:30:36;10.50;;;4.90;;
56824;SDS011;42705;50.326;18.772;2023-04-03T23:35:58;10.30;;;5.10;;
56824;SDS011;42705;50.326;18.772;2023-04-03T23:41:27;12.40;;;4.60;;
56824;SDS011;42705;50.326;18.772;2023-04-03T23:46:49;9.30;;;4.20;;
56824;SDS011;42705;50.326;18.772;2023-04-03T23:52:10;8.80;;;4.10;;
56824;SDS011;42705;50.326;18.772;2023-04-03T23:57:32;7.20;;;3.70;;
